sensor_id;sensor_type;location;lat;lon;timestamp;P1;durP1;ratioP1;P2;durP2;ratioP2
47259;SDS011;32999;52.412;4.890;2024-02-23T00:18:23;13.68;;;4.07;;
47259;SDS011;32999;52.412;4.890;2024-02-23T00:23:36;22.80;;;3.30;;
47259;SDS011;32999;52.412;4.890;2024-02-23T00:28:43;23.25;;;3.65;;
47259;SDS011;32999;52.412;4.890;2024-02-23T00:33:46;16.70;;;2.58;;
47259;SDS011;32999;52.412;4.890;2024-02-23T00:38:48;11.90;;;2.15;;
47259;SDS011;32999;52.412;4.890;2024-02-23T00:43:52;10.82;;;2.05;;
47259;SDS011;32999;52.412;4.890;2024-02-23T00:49:13;11.37;;;2.10;;
47259;SDS011;32999;52.412;4.890;2024-02-23T00:54:16;11.35;;;3.10;;
47259;SDS011;32999;52.412;4.890;2024-02-23T00:59:18;11.30;;;2.17;;
47259;SDS011;32999;52.412;4.890;2024-02-23T01:04:23;7.80;;;1.85;;
47259;SDS011;32999;52.412;4.890;2024-02-23T01:09:25;8.90;;;1.60;;
47259;SDS011;32999;52.412;4.890;2024-02-23T01:14:27;12.20;;;1.65;;
47259;SDS011;32999;52.412;4.890;2024-02-23T01:19:30;7.78;;;1.98;;
47259;SDS011;32999;52.412;4.890;2024-02-23T01:24:31;12.18;;;1.92;;
47259;SDS011;32999;52.412;4.890;2024-02-23T01:29:33;8.65;;;2.03;;
47259;SDS011;32999;52.412;4.890;2024-02-23T01:34:37;5.45;;;2.00;;
47259;SDS011;32999;52.412;4.890;2024-02-23T01:39:38;8.70;;;2.53;;
47259;SDS011;32999;52.412;4.890;2024-02-23T01:44:40;14.45;;;1.80;;
47259;SDS011;32999;52.412;4.890;2024-02-23T01:49:43;9.00;;;2.08;;
47259;SDS011;32999;52.412;4.890;2024-02-23T01:54:45;11.48;;;1.70;;
47259;SDS011;32999;52.412;4.890;2024-02-23T01:59:49;12.32;;;2.75;;
47259;SDS011;32999;52.412;4.890;2024-02-23T02:09:57;11.13;;;3.22;;
47259;SDS011;32999;52.412;4.890;2024-02-23T02:14:59;15.52;;;3.55;;
47259;SDS011;32999;52.412;4.890;2024-02-23T02:20:06;14.15;;;1.92;;
47259;SDS011;32999;52.412;4.890;2024-02-23T02:25:16;14.07;;;2.50;;
47259;SDS011;32999;52.412;4.890;2024-02-23T02:30:17;9.38;;;3.40;;
47259;SDS011;32999;52.412;4.890;2024-02-23T02:35:31;10.65;;;2.83;;
47259;SDS011;32999;52.412;4.890;2024-02-23T02:40:41;8.82;;;3.25;;
47259;SDS011;32999;52.412;4.890;2024-02-23T02:51:34;9.20;;;3.20;;
47259;SDS011;32999;52.412;4.890;2024-02-23T02:56:43;8.50;;;2.28;;
47259;SDS011;32999;52.412;4.890;2024-02-23T03:01:54;10.68;;;1.73;;
47259;SDS011;32999;52.412;4.890;2024-02-23T03:06:57;9.43;;;1.58;;
47259;SDS011;32999;52.412;4.890;2024-02-23T03:12:05;12.10;;;1.13;;
47259;SDS011;32999;52.412;4.890;2024-02-23T03:17:07;7.88;;;2.33;;
47259;SDS011;32999;52.412;4.890;2024-02-23T03:22:09;9.57;;;2.15;;
47259;SDS011;32999;52.412;4.890;2024-02-23T03:27:38;11.47;;;2.30;;
47259;SDS011;32999;52.412;4.890;2024-02-23T03:33:03;8.93;;;1.20;;
47259;SDS011;32999;52.412;4.890;2024-02-23T03:38:05;7.75;;;1.60;;
47259;SDS011;32999;52.412;4.890;2024-02-23T03:43:14;8.60;;;1.45;;
47259;SDS011;32999;52.412;4.890;2024-02-23T03:48:16;10.40;;;1.30;;
47259;SDS011;32999;52.412;4.890;2024-02-23T03:53:18;7.25;;;1.20;;
47259;SDS011;32999;52.412;4.890;2024-02-23T03:58:21;12.60;;;1.15;;
47259;SDS011;32999;52.412;4.890;2024-02-23T04:03:22;15.35;;;1.48;;
47259;SDS011;32999;52.412;4.890;2024-02-23T04:08:24;9.40;;;1.20;;
47259;SDS011;32999;52.412;4.890;2024-02-23T04:13:27;16.33;;;2.88;;
47259;SDS011;32999;52.412;4.890;2024-02-23T04:18:28;4.07;;;0.70;;
47259;SDS011;32999;52.412;4.890;2024-02-23T04:23:30;9.63;;;0.90;;
47259;SDS011;32999;52.412;4.890;2024-02-23T04:28:33;6.50;;;1.33;;
47259;SDS011;32999;52.412;4.890;2024-02-23T04:33:34;12.45;;;1.67;;
47259;SDS011;32999;52.412;4.890;2024-02-23T04:38:38;8.55;;;1.52;;
47259;SDS011;32999;52.412;4.890;2024-02-23T05:35:04;6.07;;;1.88;;
47259;SDS011;32999;52.412;4.890;2024-02-23T05:46:08;3.70;;;0.77;;
47259;SDS011;32999;52.412;4.890;2024-02-23T06:19:38;3.78;;;1.20;;
47259;SDS011;32999;52.412;4.890;2024-02-23T06:25:10;4.90;;;1.08;;
47259;SDS011;32999;52.412;4.890;2024-02-23T06:30:30;7.47;;;1.57;;
47259;SDS011;32999;52.412;4.890;2024-02-23T06:35:51;6.68;;;1.48;;
47259;SDS011;32999;52.412;4.890;2024-02-23T06:40:56;6.10;;;1.58;;
47259;SDS011;32999;52.412;4.890;2024-02-23T06:46:18;7.35;;;2.30;;
47259;SDS011;32999;52.412;4.890;2024-02-23T06:57:27;7.53;;;2.90;;
47259;SDS011;32999;52.412;4.890;2024-02-23T07:02:44;5.15;;;1.95;;
47259;SDS011;32999;52.412;4.890;2024-02-23T07:07:55;12.25;;;2.20;;
47259;SDS011;32999;52.412;4.890;2024-02-23T07:41:43;9.85;;;3.00;;
47259;SDS011;32999;52.412;4.890;2024-02-23T07:46:49;8.40;;;2.92;;
47259;SDS011;32999;52.412;4.890;2024-02-23T08:43:49;5.32;;;2.97;;
47259;SDS011;32999;52.412;4.890;2024-02-23T10:20:04;4.22;;;1.27;;
47259;SDS011;32999;52.412;4.890;2024-02-23T10:30:50;7.78;;;1.50;;
47259;SDS011;32999;52.412;4.890;2024-02-23T10:47:40;16.60;;;4.18;;
47259;SDS011;32999;52.412;4.890;2024-02-23T10:52:46;8.35;;;1.67;;
47259;SDS011;32999;52.412;4.890;2024-02-23T10:57:48;3.85;;;1.50;;
47259;SDS011;32999;52.412;4.890;2024-02-23T11:14:43;5.23;;;0.73;;
47259;SDS011;32999;52.412;4.890;2024-02-23T11:48:46;3.15;;;1.05;;
47259;SDS011;32999;52.412;4.890;2024-02-23T11:59:36;4.22;;;0.60;;
47259;SDS011;32999;52.412;4.890;2024-02-23T12:04:45;6.72;;;1.00;;
47259;SDS011;32999;52.412;4.890;2024-02-23T12:10:01;7.40;;;1.02;;
47259;SDS011;32999;52.412;4.890;2024-02-23T12:15:17;9.02;;;2.67;;
47259;SDS011;32999;52.412;4.890;2024-02-23T12:20:20;3.65;;;0.77;;
47259;SDS011;32999;52.412;4.890;2024-02-23T12:25:23;3.08;;;0.90;;
47259;SDS011;32999;52.412;4.890;2024-02-23T12:30:25;6.72;;;1.35;;
47259;SDS011;32999;52.412;4.890;2024-02-23T12:41:05;7.90;;;2.05;;
47259;SDS011;32999;52.412;4.890;2024-02-23T12:46:07;3.28;;;0.93;;
47259;SDS011;32999;52.412;4.890;2024-02-23T12:51:09;3.03;;;1.65;;
47259;SDS011;32999;52.412;4.890;2024-02-23T12:56:13;5.55;;;0.93;;
47259;SDS011;32999;52.412;4.890;2024-02-23T13:01:16;5.45;;;0.85;;
47259;SDS011;32999;52.412;4.890;2024-02-23T13:06:17;9.05;;;1.10;;
47259;SDS011;32999;52.412;4.890;2024-02-23T13:11:20;8.00;;;1.50;;
47259;SDS011;32999;52.412;4.890;2024-02-23T13:16:21;4.38;;;0.93;;
47259;SDS011;32999;52.412;4.890;2024-02-23T13:21:23;4.75;;;2.05;;
47259;SDS011;32999;52.412;4.890;2024-02-23T13:26:26;7.40;;;1.55;;
47259;SDS011;32999;52.412;4.890;2024-02-23T13:31:28;4.75;;;0.82;;
47259;SDS011;32999;52.412;4.890;2024-02-23T13:36:29;5.78;;;0.80;;
47259;SDS011;32999;52.412;4.890;2024-02-23T13:41:32;6.55;;;0.80;;
47259;SDS011;32999;52.412;4.890;2024-02-23T13:46:35;2.63;;;0.93;;
47259;SDS011;32999;52.412;4.890;2024-02-23T13:51:37;7.78;;;1.38;;
47259;SDS011;32999;52.412;4.890;2024-02-23T13:56:40;6.82;;;0.80;;
47259;SDS011;32999;52.412;4.890;2024-02-23T14:01:42;5.95;;;0.77;;
47259;SDS011;32999;52.412;4.890;2024-02-23T14:06:45;1.60;;;0.55;;
47259;SDS011;32999;52.412;4.890;2024-02-23T14:11:48;4.95;;;0.88;;
47259;SDS011;32999;52.412;4.890;2024-02-23T14:16:49;3.00;;;0.85;;
47259;SDS011;32999;52.412;4.890;2024-02-23T14:21:51;8.85;;;2.38;;
47259;SDS011;32999;52.412;4.890;2024-02-23T14:26:54;4.60;;;1.70;;
47259;SDS011;32999;52.412;4.890;2024-02-23T14:31:55;3.35;;;0.88;;
47259;SDS011;32999;52.412;4.890;2024-02-23T14:36:57;3.72;;;0.70;;
47259;SDS011;32999;52.412;4.890;2024-02-23T14:42:00;2.80;;;0.40;;
47259;SDS011;32999;52.412;4.890;2024-02-23T14:47:02;4.65;;;0.45;;
47259;SDS011;32999;52.412;4.890;2024-02-23T14:52:03;1.83;;;0.20;;
47259;SDS011;32999;52.412;4.890;2024-02-23T14:57:06;2.90;;;0.38;;
47259;SDS011;32999;52.412;4.890;2024-02-23T15:02:08;3.95;;;0.40;;
47259;SDS011;32999;52.412;4.890;2024-02-23T15:07:10;2.25;;;0.57;;
47259;SDS011;32999;52.412;4.890;2024-02-23T15:12:13;3.17;;;0.50;;
47259;SDS011;32999;52.412;4.890;2024-02-23T15:17:15;1.80;;;0.28;;
47259;SDS011;32999;52.412;4.890;2024-02-23T15:22:17;0.75;;;0.30;;
47259;SDS011;32999;52.412;4.890;2024-02-23T15:27:21;1.20;;;0.35;;
47259;SDS011;32999;52.412;4.890;2024-02-23T15:32:22;1.77;;;0.40;;
47259;SDS011;32999;52.412;4.890;2024-02-23T15:37:24;2.30;;;0.68;;
47259;SDS011;32999;52.412;4.890;2024-02-23T15:42:27;1.33;;;0.68;;
47259;SDS011;32999;52.412;4.890;2024-02-23T15:47:28;2.08;;;0.50;;
47259;SDS011;32999;52.412;4.890;2024-02-23T15:52:29;6.30;;;1.08;;
47259;SDS011;32999;52.412;4.890;2024-02-23T15:57:33;2.13;;;0.40;;
47259;SDS011;32999;52.412;4.890;2024-02-23T16:07:37;3.05;;;0.70;;
47259;SDS011;32999;52.412;4.890;2024-02-23T16:12:40;1.13;;;0.40;;
47259;SDS011;32999;52.412;4.890;2024-02-23T16:17:42;1.95;;;0.50;;
47259;SDS011;32999;52.412;4.890;2024-02-23T16:22:43;1.40;;;1.00;;
47259;SDS011;32999;52.412;4.890;2024-02-23T16:27:46;3.08;;;0.77;;
47259;SDS011;32999;52.412;4.890;2024-02-23T16:32:47;1.38;;;0.55;;
47259;SDS011;32999;52.412;4.890;2024-02-23T16:37:49;2.30;;;0.63;;
47259;SDS011;32999;52.412;4.890;2024-02-23T16:42:52;4.82;;;0.93;;
47259;SDS011;32999;52.412;4.890;2024-02-23T16:47:54;3.17;;;1.00;;
47259;SDS011;32999;52.412;4.890;2024-02-23T16:52:55;3.35;;;1.13;;
47259;SDS011;32999;52.412;4.890;2024-02-23T16:57:58;2.60;;;0.90;;
47259;SDS011;32999;52.412;4.890;2024-02-23T17:03:00;3.53;;;0.90;;
47259;SDS011;32999;52.412;4.890;2024-02-23T17:08:01;1.70;;;1.23;;
47259;SDS011;32999;52.412;4.890;2024-02-23T17:13:04;4.38;;;1.25;;
47259;SDS011;32999;52.412;4.890;2024-02-23T17:18:06;2.85;;;1.25;;
47259;SDS011;32999;52.412;4.890;2024-02-23T17:23:08;1.83;;;0.85;;
47259;SDS011;32999;52.412;4.890;2024-02-23T17:28:11;3.75;;;1.45;;
47259;SDS011;32999;52.412;4.890;2024-02-23T17:33:15;2.95;;;1.27;;
47259;SDS011;32999;52.412;4.890;2024-02-23T17:38:19;4.30;;;1.38;;
47259;SDS011;32999;52.412;4.890;2024-02-23T17:43:22;3.20;;;1.40;;
47259;SDS011;32999;52.412;4.890;2024-02-23T17:48:23;2.50;;;1.10;;
47259;SDS011;32999;52.412;4.890;2024-02-23T17:53:25;6.72;;;1.73;;
47259;SDS011;32999;52.412;4.890;2024-02-23T17:58:28;2.67;;;0.90;;
47259;SDS011;32999;52.412;4.890;2024-02-23T18:03:31;1.27;;;0.75;;
47259;SDS011;32999;52.412;4.890;2024-02-23T18:08:33;5.18;;;1.83;;
47259;SDS011;32999;52.412;4.890;2024-02-23T18:13:37;1.75;;;0.82;;
47259;SDS011;32999;52.412;4.890;2024-02-23T18:18:39;2.40;;;1.10;;
47259;SDS011;32999;52.412;4.890;2024-02-23T18:23:43;1.98;;;0.80;;
47259;SDS011;32999;52.412;4.890;2024-02-23T18:28:47;3.80;;;0.93;;
47259;SDS011;32999;52.412;4.890;2024-02-23T18:33:53;3.78;;;1.42;;
47259;SDS011;32999;52.412;4.890;2024-02-23T18:39:00;3.47;;;1.52;;
47259;SDS011;32999;52.412;4.890;2024-02-23T18:55:28;3.00;;;1.30;;
47259;SDS011;32999;52.412;4.890;2024-02-23T19:00:31;2.00;;;1.27;;
47259;SDS011;32999;52.412;4.890;2024-02-23T19:05:43;2.90;;;1.20;;
47259;SDS011;32999;52.412;4.890;2024-02-23T19:11:00;1.15;;;0.90;;
47259;SDS011;32999;52.412;4.890;2024-02-23T19:16:10;2.90;;;0.95;;
47259;SDS011;32999;52.412;4.890;2024-02-23T19:21:13;1.95;;;1.05;;
47259;SDS011;32999;52.412;4.890;2024-02-23T19:26:20;2.90;;;1.58;;
47259;SDS011;32999;52.412;4.890;2024-02-23T19:31:24;6.10;;;2.25;;
47259;SDS011;32999;52.412;4.890;2024-02-23T19:36:40;1.48;;;0.57;;
47259;SDS011;32999;52.412;4.890;2024-02-23T19:47:06;5.57;;;1.40;;
47259;SDS011;32999;52.412;4.890;2024-02-23T19:52:08;3.85;;;1.38;;
47259;SDS011;32999;52.412;4.890;2024-02-23T19:57:13;2.25;;;1.35;;
47259;SDS011;32999;52.412;4.890;2024-02-23T20:02:18;2.83;;;1.48;;
47259;SDS011;32999;52.412;4.890;2024-02-23T20:07:23;3.55;;;1.50;;
47259;SDS011;32999;52.412;4.890;2024-02-23T20:17:30;3.72;;;1.55;;
47259;SDS011;32999;52.412;4.890;2024-02-23T20:22:37;2.53;;;1.45;;
47259;SDS011;32999;52.412;4.890;2024-02-23T20:27:40;4.63;;;1.77;;
47259;SDS011;32999;52.412;4.890;2024-02-23T20:38:27;2.85;;;1.30;;
47259;SDS011;32999;52.412;4.890;2024-02-23T20:43:47;2.30;;;1.20;;
47259;SDS011;32999;52.412;4.890;2024-02-23T20:49:05;3.10;;;1.05;;
47259;SDS011;32999;52.412;4.890;2024-02-23T20:54:09;1.73;;;0.95;;
47259;SDS011;32999;52.412;4.890;2024-02-23T20:59:27;1.95;;;0.82;;
47259;SDS011;32999;52.412;4.890;2024-02-23T21:04:29;2.45;;;0.82;;
47259;SDS011;32999;52.412;4.890;2024-02-23T21:09:32;1.83;;;0.77;;
47259;SDS011;32999;52.412;4.890;2024-02-23T21:14:34;1.10;;;0.68;;
47259;SDS011;32999;52.412;4.890;2024-02-23T21:19:39;1.73;;;1.00;;
47259;SDS011;32999;52.412;4.890;2024-02-23T21:24:48;2.03;;;1.02;;
47259;SDS011;32999;52.412;4.890;2024-02-23T21:29:52;1.40;;;1.00;;
47259;SDS011;32999;52.412;4.890;2024-02-23T21:34:53;2.08;;;1.35;;
47259;SDS011;32999;52.412;4.890;2024-02-23T21:40:02;1.63;;;1.05;;
47259;SDS011;32999;52.412;4.890;2024-02-23T21:45:50;3.78;;;1.60;;
47259;SDS011;32999;52.412;4.890;2024-02-23T21:50:45;4.15;;;1.50;;
47259;SDS011;32999;52.412;4.890;2024-02-23T21:55:48;3.80;;;1.40;;
47259;SDS011;32999;52.412;4.890;2024-02-23T22:00:50;2.83;;;1.40;;
47259;SDS011;32999;52.412;4.890;2024-02-23T22:05:53;1.98;;;1.00;;
47259;SDS011;32999;52.412;4.890;2024-02-23T22:10:58;1.60;;;1.10;;
47259;SDS011;32999;52.412;4.890;2024-02-23T22:16:00;1.67;;;1.08;;
47259;SDS011;32999;52.412;4.890;2024-02-23T22:21:01;2.22;;;1.27;;
47259;SDS011;32999;52.412;4.890;2024-02-23T22:31:47;3.67;;;1.60;;
47259;SDS011;32999;52.412;4.890;2024-02-23T22:36:52;3.92;;;1.50;;
47259;SDS011;32999;52.412;4.890;2024-02-23T22:41:54;2.70;;;1.30;;
47259;SDS011;32999;52.412;4.890;2024-02-23T22:46:57;2.60;;;1.33;;
47259;SDS011;32999;52.412;4.890;2024-02-23T22:52:09;4.43;;;1.30;;
47259;SDS011;32999;52.412;4.890;2024-02-23T22:57:12;4.13;;;1.35;;
47259;SDS011;32999;52.412;4.890;2024-02-23T23:08:08;1.73;;;1.30;;
47259;SDS011;32999;52.412;4.890;2024-02-23T23:13:31;2.15;;;1.17;;
47259;SDS011;32999;52.412;4.890;2024-02-23T23:18:49;3.35;;;1.45;;
47259;SDS011;32999;52.412;4.890;2024-02-23T23:23:54;1.95;;;1.60;;
47259;SDS011;32999;52.412;4.890;2024-02-23T23:28:55;2.70;;;2.08;;
47259;SDS011;32999;52.412;4.890;2024-02-23T23:33:57;3.83;;;3.15;;
47259;SDS011;32999;52.412;4.890;2024-02-23T23:39:01;2.78;;;1.92;;
47259;SDS011;32999;52.412;4.890;2024-02-23T23:44:03;3.55;;;1.90;;
47259;SDS011;32999;52.412;4.890;2024-02-23T23:49:05;3.22;;;2.13;;
47259;SDS011;32999;52.412;4.890;2024-02-23T23:54:08;3.25;;;1.98;;
47259;SDS011;32999;52.412;4.890;2024-02-23T23:59:10;3.70;;;2.25;;
